createdAt,value
2019-04-16T00:01:59.519Z,14.47
2019-04-16T00:04:29.478Z,16.50
2019-04-16T00:07:15.465Z,14.50
2019-04-16T00:10:03.590Z,15.00
2019-04-16T00:12:36.275Z,16.00
2019-04-16T00:15:05.809Z,15.77
2019-04-16T00:17:34.099Z,15.60
2019-04-16T00:20:05.870Z,15.40
2019-04-16T00:22:46.385Z,19.23
2019-04-16T00:25:14.801Z,20.73
2019-04-16T00:27:43.116Z,16.20
2019-04-16T00:30:12.574Z,24.10
2019-04-16T00:32:42.590Z,14.70
2019-04-16T00:35:15.485Z,14.43
2019-04-16T00:37:42.610Z,14.60
2019-04-16T00:40:11.030Z,16.23
2019-04-16T00:42:39.467Z,16.03
2019-04-16T00:45:08.009Z,14.30
2019-04-16T00:47:36.292Z,15.47
2019-04-16T00:50:06.212Z,14.83
2019-04-16T00:52:36.935Z,15.57
2019-04-16T00:55:05.969Z,14.37
2019-04-16T00:57:34.265Z,14.40
2019-04-16T01:00:03.499Z,14.07
2019-04-16T01:02:31.851Z,14.70
2019-04-16T01:05:00.118Z,14.77
2019-04-16T01:07:28.388Z,14.57
2019-04-16T01:09:56.680Z,14.73
2019-04-16T01:12:24.954Z,14.17
2019-04-16T01:14:53.245Z,14.53
2019-04-16T01:17:21.521Z,13.93
2019-04-16T01:19:49.818Z,13.77
2019-04-16T01:22:18.166Z,14.93
2019-04-16T01:24:46.524Z,14.53
2019-04-16T01:27:15.386Z,14.10
2019-04-16T01:29:43.667Z,14.37
2019-04-16T01:32:13.586Z,14.93
2019-04-16T01:34:43.494Z,14.23
2019-04-16T01:37:19.475Z,15.07
2019-04-16T01:39:52.110Z,13.93
2019-04-16T01:42:23.379Z,14.33
2019-04-16T01:44:50.454Z,15.87
2019-04-16T01:47:18.728Z,13.63
2019-04-16T01:49:46.989Z,14.27
2019-04-16T01:52:18.678Z,15.00
2019-04-16T01:54:48.026Z,15.23
2019-04-16T01:57:16.297Z,15.20
2019-04-16T01:59:44.556Z,14.00
2019-04-16T02:02:15.752Z,14.27
2019-04-16T02:04:43.189Z,13.67
2019-04-16T02:07:11.462Z,14.60
2019-04-16T02:09:39.765Z,14.47
2019-04-16T02:12:12.977Z,13.47
2019-04-16T02:14:38.019Z,13.77
2019-04-16T02:17:06.279Z,15.80
2019-04-16T02:19:34.647Z,14.13
2019-04-16T02:22:02.975Z,13.07
2019-04-16T02:24:31.256Z,14.17
2019-04-16T02:26:59.519Z,14.37
2019-04-16T02:29:30.526Z,13.50
2019-04-16T02:31:57.824Z,14.70
2019-04-16T02:34:26.103Z,14.27
2019-04-16T02:37:00.577Z,13.63
2019-04-16T02:39:38.688Z,12.57
2019-04-16T02:41:58.127Z,13.10
2019-04-16T02:44:24.409Z,12.10
2019-04-16T02:46:52.665Z,14.20
2019-04-16T02:49:24.459Z,12.80
2019-04-16T02:51:55.650Z,13.30
2019-04-16T02:54:32.939Z,13.50
2019-04-16T02:57:09.051Z,12.30
2019-04-16T02:59:45.820Z,13.97
2019-04-16T03:02:13.462Z,12.30
2019-04-16T03:04:45.896Z,11.97
2019-04-16T03:07:14.298Z,12.13
2019-04-16T03:09:42.492Z,13.10
2019-04-16T03:12:10.771Z,12.40
2019-04-16T03:14:39.057Z,12.80
2019-04-16T03:17:11.941Z,12.20
2019-04-16T03:19:41.851Z,13.33
2019-04-16T03:22:10.141Z,12.90
2019-04-16T03:24:40.233Z,12.73
2019-04-16T03:27:08.394Z,11.77
2019-04-16T03:29:36.737Z,14.10
2019-04-16T03:32:05.016Z,13.10
2019-04-16T03:34:33.310Z,14.00
2019-04-16T03:37:02.075Z,13.87
2019-04-16T03:39:31.444Z,12.97
2019-04-16T03:41:59.689Z,13.20
2019-04-16T03:44:27.978Z,11.03
2019-04-16T03:46:56.760Z,12.67
2019-04-16T03:49:27.774Z,13.50
2019-04-16T03:51:55.061Z,12.73
2019-04-16T03:54:23.351Z,12.10
2019-04-16T03:56:51.718Z,12.37
2019-04-16T03:59:20.008Z,12.90
2019-04-16T04:01:48.292Z,13.03
2019-04-16T04:04:16.573Z,12.87
2019-04-16T04:06:44.927Z,13.37
2019-04-16T04:09:13.221Z,12.87
2019-04-16T04:11:42.002Z,12.77
2019-04-16T04:14:10.388Z,13.13
2019-04-16T04:16:38.766Z,11.83
2019-04-16T04:19:07.053Z,12.57
2019-04-16T04:21:35.330Z,13.20
2019-04-16T04:24:03.623Z,15.63
2019-04-16T04:26:31.878Z,13.97
2019-04-16T04:29:00.161Z,12.77
2019-04-16T04:31:32.127Z,12.97
2019-04-16T04:33:58.438Z,13.13
2019-04-16T04:36:28.248Z,14.60
2019-04-16T04:38:56.853Z,13.03
2019-04-16T04:41:25.113Z,14.70
2019-04-16T04:43:53.385Z,12.70
2019-04-16T04:46:21.650Z,14.93
2019-04-16T04:48:55.010Z,13.87
2019-04-16T04:51:19.940Z,14.27
2019-04-16T04:53:50.348Z,13.43
2019-04-16T04:56:19.551Z,13.43
2019-04-16T04:58:48.294Z,15.07
2019-04-16T05:01:16.628Z,13.90
2019-04-16T05:03:49.638Z,14.00
2019-04-16T05:06:19.542Z,16.37
2019-04-16T05:08:47.833Z,13.87
2019-04-16T05:11:16.963Z,13.20
2019-04-16T05:13:45.567Z,13.30
2019-04-16T05:16:13.841Z,13.10
2019-04-16T05:18:42.719Z,12.50
2019-04-16T05:21:11.239Z,13.37
2019-04-16T05:23:39.519Z,15.73
2019-04-16T05:26:09.835Z,13.30
2019-04-16T05:28:37.866Z,13.50
2019-04-16T05:31:06.139Z,12.70
2019-04-16T05:33:37.212Z,14.33
2019-04-16T05:36:04.509Z,15.03
2019-04-16T05:38:32.767Z,14.97
2019-04-16T05:41:12.479Z,13.60
2019-04-16T05:43:31.252Z,13.60
2019-04-16T05:45:59.801Z,11.80
2019-04-16T05:48:28.062Z,17.80
2019-04-16T05:50:59.710Z,15.43
2019-04-16T05:53:26.405Z,15.20
2019-04-16T05:55:57.449Z,13.40
2019-04-16T05:58:27.509Z,14.57
2019-04-16T06:01:00.435Z,14.13
2019-04-16T06:03:28.782Z,15.30
2019-04-16T06:05:59.240Z,12.90
2019-04-16T06:08:27.056Z,13.10
2019-04-16T06:10:57.478Z,14.87
2019-04-16T06:13:29.699Z,13.77
2019-04-16T06:16:08.087Z,13.27
2019-04-16T06:18:49.783Z,13.83
2019-04-16T06:21:19.698Z,13.93
2019-04-16T06:24:05.722Z,14.13
2019-04-16T06:26:51.628Z,13.03
2019-04-16T06:29:33.739Z,12.77
2019-04-16T06:32:11.908Z,12.43
2019-04-16T06:34:57.467Z,12.93
2019-04-16T06:37:27.952Z,14.40
2019-04-16T06:40:12.982Z,13.40
2019-04-16T06:42:42.928Z,14.57
2019-04-16T06:45:28.323Z,13.53
2019-04-16T06:47:58.253Z,13.00
2019-04-16T06:50:32.116Z,12.70
2019-04-16T06:53:19.871Z,12.07
2019-04-16T06:55:57.942Z,13.20
2019-04-16T06:58:51.384Z,14.57
2019-04-16T07:04:20.267Z,12.77
2019-04-16T07:07:08.402Z,13.27
2019-04-16T07:09:41.676Z,13.80
2019-04-16T07:12:09.439Z,14.03
2019-04-16T07:14:37.728Z,14.50
2019-04-16T07:17:05.993Z,13.53
2019-04-16T07:19:34.271Z,13.30
2019-04-16T07:22:02.543Z,12.23
2019-04-16T07:24:32.067Z,13.60
2019-04-16T07:27:00.900Z,13.33
2019-04-16T07:29:32.708Z,13.53
2019-04-16T07:32:03.089Z,12.00
2019-04-16T07:34:33.201Z,13.40
2019-04-16T07:37:03.130Z,13.30
2019-04-16T07:39:50.879Z,13.23
2019-04-16T07:42:22.321Z,13.63
2019-04-16T07:45:11.679Z,14.30
2019-04-16T07:47:40.133Z,13.73
2019-04-16T07:50:16.789Z,14.33
2019-04-16T07:52:55.708Z,12.50
2019-04-16T07:55:45.980Z,13.57
2019-04-16T07:58:14.255Z,14.37
2019-04-16T08:00:42.518Z,14.77
2019-04-16T08:03:10.807Z,14.50
2019-04-16T08:05:41.248Z,14.00
2019-04-16T08:08:09.170Z,14.27
2019-04-16T08:10:37.441Z,13.30
2019-04-16T08:13:07.381Z,13.43
2019-04-16T08:15:35.790Z,14.20
2019-04-16T08:18:04.054Z,13.07
2019-04-16T08:20:33.098Z,12.53
2019-04-16T08:23:05.927Z,13.70
2019-04-16T08:25:34.974Z,14.60
2019-04-16T08:28:06.575Z,14.60
2019-04-16T08:30:39.008Z,13.70
2019-04-16T08:33:03.391Z,14.60
2019-04-16T08:35:31.666Z,13.87
2019-04-16T08:37:59.926Z,13.97
2019-04-16T08:40:28.187Z,14.60
2019-04-16T08:42:57.297Z,14.90
2019-04-16T08:45:26.639Z,13.50
2019-04-16T08:47:54.899Z,14.17
2019-04-16T08:50:25.859Z,14.10
2019-04-16T08:52:53.164Z,14.30
2019-04-16T08:55:23.586Z,13.40
2019-04-16T08:57:51.428Z,14.03
2019-04-16T09:00:19.754Z,14.10
2019-04-16T09:02:48.024Z,14.20
2019-04-16T09:05:16.321Z,14.53
2019-04-16T09:07:44.593Z,14.17
2019-04-16T09:10:21.379Z,14.53
2019-04-16T09:12:50.957Z,13.80
2019-04-16T09:15:18.095Z,15.20
2019-04-16T09:17:48.002Z,14.40
2019-04-16T09:20:17.908Z,14.50
2019-04-16T09:22:49.115Z,13.77
2019-04-16T09:25:17.826Z,15.63
2019-04-16T09:27:47.757Z,16.17
2019-04-16T09:30:33.651Z,14.63
2019-04-16T09:33:06.457Z,15.33
2019-04-16T09:35:36.363Z,15.77
2019-04-16T09:38:21.571Z,13.70
2019-04-16T09:41:09.741Z,14.83
2019-04-16T09:43:57.114Z,15.33
2019-04-16T09:46:48.779Z,16.87
2019-04-16T09:48:55.244Z,16.50
2019-04-16T09:51:25.368Z,14.20
2019-04-16T09:53:53.516Z,15.00
2019-04-16T09:56:30.033Z,19.30
2019-04-16T09:59:01.510Z,16.50
2019-04-16T10:01:31.451Z,15.57
2019-04-16T10:04:00.297Z,16.43
2019-04-16T10:06:28.579Z,15.83
2019-04-16T10:08:57.003Z,16.50
2019-04-16T10:11:25.329Z,17.03
2019-04-16T10:13:53.673Z,16.50
2019-04-16T10:16:23.578Z,15.30
2019-04-16T10:18:51.874Z,16.80
2019-04-16T10:21:20.364Z,15.87
2019-04-16T10:23:56.460Z,15.40
2019-04-16T10:26:24.727Z,15.57
2019-04-16T10:28:53.684Z,15.23
2019-04-16T10:31:23.772Z,16.27
2019-04-16T10:33:52.031Z,16.47
2019-04-16T10:36:20.305Z,16.17
2019-04-16T10:38:50.257Z,16.80
2019-04-16T10:41:20.165Z,15.63
2019-04-16T10:43:50.082Z,16.13
2019-04-16T10:46:20.012Z,17.00
2019-04-16T10:48:52.870Z,16.63
2019-04-16T10:51:22.777Z,16.37
2019-04-16T10:53:52.688Z,16.70
2019-04-16T10:56:28.841Z,16.77
2019-04-16T10:58:58.755Z,17.20
2019-04-16T11:01:32.945Z,16.13
2019-04-16T11:04:00.261Z,17.23
2019-04-16T11:06:30.200Z,17.17
2019-04-16T11:09:05.450Z,17.87
2019-04-16T11:11:36.142Z,17.43
2019-04-16T11:14:04.597Z,17.83
2019-04-16T11:16:35.876Z,16.47
2019-04-16T11:19:02.967Z,18.47
2019-04-16T11:21:31.191Z,17.57
2019-04-16T11:23:59.448Z,17.73
2019-04-16T11:26:27.731Z,18.67
2019-04-16T11:28:56.030Z,18.73
2019-04-16T11:31:26.127Z,16.43
2019-04-16T11:33:54.420Z,17.40
2019-04-16T11:36:22.718Z,18.87
2019-04-16T11:38:50.991Z,15.10
2019-04-16T11:41:19.360Z,16.53
2019-04-16T11:43:47.616Z,16.13
2019-04-16T11:46:16.193Z,16.47
2019-04-16T11:48:44.420Z,15.90
2019-04-16T11:51:12.669Z,17.30
2019-04-16T11:53:41.035Z,16.67
2019-04-16T11:56:09.294Z,17.27
2019-04-16T11:58:39.206Z,17.70
2019-04-16T12:01:09.206Z,18.17
2019-04-16T12:03:44.867Z,17.73
2019-04-16T12:06:31.253Z,17.30
2019-04-16T12:09:19.323Z,16.77
2019-04-16T12:11:49.252Z,18.00
2019-04-16T12:14:35.429Z,18.53
2019-04-16T12:17:15.157Z,18.60
2019-04-16T12:20:00.435Z,17.80
2019-04-16T12:22:36.494Z,17.37
2019-04-16T12:25:13.350Z,18.43
2019-04-16T12:27:52.409Z,17.27
2019-04-16T12:30:38.353Z,17.87
2019-04-16T12:33:13.927Z,17.40
2019-04-16T12:35:45.186Z,17.67
2019-04-16T12:38:30.280Z,17.70
2019-04-16T12:41:09.038Z,17.67
2019-04-16T12:43:51.641Z,17.03
2019-04-16T12:46:27.146Z,18.27
2019-04-16T12:48:59.779Z,19.23
2019-04-16T12:51:40.782Z,16.70
2019-04-16T12:54:26.374Z,18.30
2019-04-16T12:57:10.664Z,16.10
2019-04-16T12:59:39.980Z,17.00
2019-04-16T13:02:21.865Z,15.50
2019-04-16T13:04:51.800Z,16.60
2019-04-16T13:07:27.953Z,15.80
2019-04-16T13:10:03.860Z,15.17
2019-04-16T13:12:36.653Z,16.43
2019-04-16T13:15:10.950Z,17.17
2019-04-16T13:17:56.729Z,14.90
2019-04-16T13:20:38.483Z,14.27
2019-04-16T13:23:08.399Z,15.07
2019-04-16T13:25:44.065Z,12.70
2019-04-16T13:28:12.369Z,12.23
2019-04-16T13:30:40.652Z,13.30
2019-04-16T13:33:08.939Z,13.73
2019-04-16T13:35:37.237Z,14.50
2019-04-16T13:38:09.534Z,13.30
2019-04-16T13:40:35.606Z,11.00
2019-04-16T13:43:05.890Z,12.63
2019-04-16T13:45:35.605Z,11.87
2019-04-16T13:48:15.979Z,11.60
2019-04-16T13:50:50.863Z,12.00
2019-04-16T13:53:28.701Z,11.13
2019-04-16T13:56:10.938Z,13.20
2019-04-16T13:58:43.345Z,14.03
2019-04-16T14:01:22.189Z,12.10
2019-04-16T14:03:50.474Z,11.20
2019-04-16T14:06:18.809Z,13.30
2019-04-16T14:08:47.068Z,12.67
2019-04-16T14:11:16.556Z,13.03
2019-04-16T14:13:46.421Z,12.43
2019-04-16T14:16:15.394Z,11.90
2019-04-16T14:18:43.664Z,10.83
2019-04-16T14:21:12.012Z,11.80
2019-04-16T14:23:40.304Z,11.27
2019-04-16T14:26:08.594Z,10.77
2019-04-16T14:28:51.294Z,11.00
2019-04-16T14:31:06.865Z,12.63
2019-04-16T14:33:42.826Z,12.63
2019-04-16T14:36:12.802Z,12.20
2019-04-16T14:38:51.823Z,13.13
2019-04-16T14:41:20.133Z,13.97
2019-04-16T14:43:50.099Z,13.50
2019-04-16T14:46:18.377Z,12.73
2019-04-16T14:48:46.855Z,11.13
2019-04-16T14:51:15.254Z,12.57
2019-04-16T14:53:45.163Z,13.83
2019-04-16T14:56:20.882Z,14.50
2019-04-16T14:58:50.881Z,14.83
2019-04-16T15:01:20.788Z,14.30
2019-04-16T15:03:50.724Z,13.30
2019-04-16T15:06:26.610Z,14.10
2019-04-16T15:09:05.559Z,14.27
2019-04-16T15:11:51.617Z,16.43
2019-04-16T15:14:23.402Z,13.50
2019-04-16T15:17:12.240Z,13.83
2019-04-16T15:19:49.590Z,14.10
2019-04-16T15:22:35.967Z,17.37
2019-04-16T15:25:07.924Z,16.03
2019-04-16T15:27:53.775Z,16.33
2019-04-16T15:30:29.432Z,15.37
2019-04-16T15:33:15.768Z,15.80
2019-04-16T15:36:02.199Z,18.47
2019-04-16T15:38:37.852Z,18.33
2019-04-16T15:41:17.242Z,16.53
2019-04-16T15:44:01.608Z,18.40
2019-04-16T15:46:41.381Z,16.53
2019-04-16T15:49:30.054Z,17.90
2019-04-16T15:52:16.394Z,18.23
2019-04-16T15:54:49.100Z,18.10
2019-04-16T15:57:35.458Z,19.10
2019-04-16T16:00:12.726Z,19.70
2019-04-16T16:02:59.184Z,20.00
2019-04-16T16:05:29.089Z,16.57
2019-04-16T16:08:02.003Z,19.67
2019-04-16T16:10:33.153Z,20.13
2019-04-16T16:13:01.519Z,19.80
2019-04-16T16:15:29.879Z,18.87
2019-04-16T16:17:58.179Z,20.40
2019-04-16T16:20:27.652Z,21.17
2019-04-16T16:22:58.151Z,19.50
2019-04-16T16:25:25.918Z,20.73
2019-04-16T16:27:54.246Z,19.80
2019-04-16T16:30:22.466Z,18.80
2019-04-16T16:32:50.783Z,18.50
2019-04-16T16:35:19.074Z,19.60
2019-04-16T16:37:47.364Z,19.20
2019-04-16T16:40:16.175Z,18.33
2019-04-16T16:42:44.558Z,18.23
2019-04-16T16:45:12.984Z,18.73
2019-04-16T16:47:41.280Z,18.30
2019-04-16T16:50:11.708Z,19.80
2019-04-16T16:52:41.627Z,19.93
2019-04-16T16:55:21.757Z,21.03
2019-04-16T16:58:03.692Z,19.77
2019-04-16T17:00:45.674Z,21.40
2019-04-16T17:03:18.720Z,17.90
2019-04-16T17:05:47.012Z,20.50
2019-04-16T17:08:15.279Z,19.80
2019-04-16T17:10:43.569Z,19.10
2019-04-16T17:13:14.559Z,17.93
2019-04-16T17:15:41.920Z,19.77
2019-04-16T17:18:10.183Z,20.33
2019-04-16T17:20:41.193Z,21.73
2019-04-16T17:23:08.502Z,18.80
2019-04-16T17:25:37.098Z,20.37
2019-04-16T17:28:05.404Z,18.63
2019-04-16T17:30:33.751Z,20.63
2019-04-16T17:33:02.052Z,19.57
2019-04-16T17:35:30.491Z,20.17
2019-04-16T17:38:02.713Z,18.33
2019-04-16T17:40:37.180Z,18.00
2019-04-16T17:43:12.943Z,19.07
2019-04-16T17:45:54.945Z,20.63
2019-04-16T17:48:24.874Z,19.07
2019-04-16T17:51:06.739Z,19.37
2019-04-16T17:53:42.343Z,18.70
2019-04-16T17:56:28.390Z,23.37
2019-04-16T17:58:58.320Z,18.70
2019-04-16T18:01:34.215Z,19.17
2019-04-16T18:04:04.487Z,18.87
2019-04-16T18:06:50.641Z,12.67
2019-04-16T18:09:23.282Z,12.90
2019-04-16T18:11:58.929Z,10.00
2019-04-16T18:14:41.095Z,9.77
2019-04-16T18:17:13.974Z,8.30
2019-04-16T18:20:00.033Z,7.53
2019-04-16T18:22:32.657Z,6.40
2019-04-16T18:27:44.389Z,5.57
2019-04-16T18:30:32.591Z,5.90
2019-04-16T18:33:20.730Z,6.90
2019-04-16T18:35:53.301Z,5.77
2019-04-16T18:38:23.387Z,4.50
2019-04-16T18:41:09.663Z,4.90
2019-04-16T18:43:51.562Z,4.80
2019-04-16T18:46:37.521Z,5.97
2019-04-16T18:49:23.425Z,5.37
2019-04-16T18:51:51.697Z,5.90
2019-04-16T18:54:20.049Z,5.70
2019-04-16T18:56:48.396Z,4.87
2019-04-16T18:59:16.684Z,6.20
2019-04-16T19:01:46.571Z,6.03
2019-04-16T19:04:14.838Z,5.40
2019-04-16T19:06:43.169Z,5.10
2019-04-16T19:09:11.429Z,5.67
2019-04-16T19:11:39.705Z,5.90
2019-04-16T19:14:10.334Z,5.20
2019-04-16T19:16:38.053Z,5.30
2019-04-16T19:19:06.703Z,5.37
2019-04-16T19:21:35.297Z,5.53
2019-04-16T19:24:03.564Z,5.60
2019-04-16T19:26:31.852Z,4.97
2019-04-16T19:29:00.256Z,4.37
2019-04-16T19:31:28.536Z,3.70
2019-04-16T19:33:56.915Z,3.80
2019-04-16T19:36:27.507Z,4.20
2019-04-16T19:38:55.142Z,4.53
2019-04-16T19:41:24.503Z,3.63
2019-04-16T19:43:53.096Z,3.03
2019-04-16T19:46:21.362Z,3.70
2019-04-16T19:48:49.944Z,3.33
2019-04-16T19:51:19.851Z,3.13
2019-04-16T19:53:48.574Z,3.50
2019-04-16T19:56:18.648Z,3.27
2019-04-16T19:58:48.148Z,3.13
2019-04-16T20:01:16.512Z,3.60
2019-04-16T20:03:44.841Z,2.60
2019-04-16T20:06:13.232Z,3.43
2019-04-16T20:08:41.659Z,3.03
2019-04-16T20:11:09.926Z,3.63
2019-04-16T20:13:38.207Z,3.50
2019-04-16T20:16:06.744Z,3.40
2019-04-16T20:18:50.008Z,3.30
2019-04-16T20:21:05.157Z,3.10
2019-04-16T20:23:33.458Z,3.30
2019-04-16T20:26:01.737Z,3.57
2019-04-16T20:28:30.114Z,3.70
2019-04-16T20:31:03.250Z,4.30
2019-04-16T20:33:28.695Z,3.97
2019-04-16T20:35:56.973Z,3.87
2019-04-16T20:38:29.016Z,3.20
2019-04-16T20:40:55.471Z,3.00
2019-04-16T20:43:23.780Z,3.63
2019-04-16T20:45:52.066Z,3.70
2019-04-16T20:48:21.251Z,4.03
2019-04-16T20:50:52.683Z,3.70
2019-04-16T20:53:19.546Z,3.23
2019-04-16T20:55:48.294Z,4.00
2019-04-16T20:58:16.549Z,3.83
2019-04-16T21:00:46.536Z,3.10
2019-04-16T21:03:22.346Z,4.00
2019-04-16T21:05:57.444Z,3.70
2019-04-16T21:08:17.155Z,3.80
2019-04-16T21:10:44.803Z,5.93
2019-04-16T21:13:15.951Z,4.20
2019-04-16T21:15:43.072Z,4.80
2019-04-16T21:18:12.242Z,9.77
2019-04-16T21:20:40.601Z,4.47
2019-04-16T21:23:08.885Z,4.90
2019-04-16T21:25:37.276Z,4.70
2019-04-16T21:28:12.826Z,5.57
2019-04-16T21:30:43.416Z,4.87
2019-04-16T21:33:31.904Z,5.23
2019-04-16T21:36:04.743Z,3.97
2019-04-16T21:38:45.198Z,4.30
2019-04-16T21:41:12.608Z,5.80
2019-04-16T21:43:41.987Z,5.30
2019-04-16T21:46:10.247Z,5.60
2019-04-16T21:48:42.296Z,5.50
2019-04-16T21:51:19.071Z,4.93
2019-04-16T21:53:44.619Z,4.63
2019-04-16T21:56:14.718Z,5.00
2019-04-16T21:58:43.207Z,5.10
2019-04-16T22:01:13.105Z,4.57
2019-04-16T22:03:42.970Z,4.40
2019-04-16T22:06:11.327Z,4.90
2019-04-16T22:08:39.611Z,5.20
2019-04-16T22:11:09.026Z,5.20
2019-04-16T22:13:37.846Z,7.63
2019-04-16T22:16:06.105Z,6.43
2019-04-16T22:18:34.390Z,5.00
2019-04-16T22:21:02.632Z,5.00
2019-04-16T22:23:30.921Z,5.30
2019-04-16T22:26:01.355Z,5.63
2019-04-16T22:28:29.197Z,5.07
2019-04-16T22:30:57.506Z,5.00
2019-04-16T22:33:25.788Z,4.93
2019-04-16T22:35:54.064Z,5.30
2019-04-16T22:38:22.447Z,4.70
2019-04-16T22:40:54.961Z,5.47
2019-04-16T22:43:43.754Z,5.70
2019-04-16T22:46:13.670Z,4.33
2019-04-16T22:48:58.391Z,4.90
2019-04-16T22:51:26.804Z,5.27
2019-04-16T22:53:55.091Z,5.27
2019-04-16T22:56:28.313Z,5.90
2019-04-16T22:58:55.535Z,4.67
2019-04-16T23:01:27.872Z,5.37
2019-04-16T23:03:56.385Z,4.37
2019-04-16T23:06:24.738Z,4.80
2019-04-16T23:08:52.993Z,5.17
2019-04-16T23:11:23.764Z,5.43
2019-04-16T23:13:51.400Z,4.80
2019-04-16T23:16:19.681Z,5.80
2019-04-16T23:18:49.320Z,4.80
2019-04-16T23:21:17.941Z,5.63
2019-04-16T23:23:47.711Z,5.13
2019-04-16T23:26:16.214Z,5.20
2019-04-16T23:28:47.802Z,4.57
2019-04-16T23:31:16.062Z,18.43
2019-04-16T23:33:44.315Z,5.20
2019-04-16T23:36:15.885Z,4.80
2019-04-16T23:38:42.578Z,5.00
2019-04-16T23:41:15.400Z,5.03
2019-04-16T23:43:54.856Z,4.67
2019-04-16T23:46:41.004Z,4.90
2019-04-16T23:49:27.059Z,4.93
2019-04-16T23:52:01.797Z,6.53
2019-04-16T23:54:28.635Z,4.30
2019-04-16T23:56:58.535Z,4.97
2019-04-16T23:59:28.429Z,4.77
